Time;durP1;ratioP1;P1;durP2;ratioP2;P2;SDS_P1;SDS_P2;PMS_P1;PMS_P2;Temp;Humidity;BMP_temperature;BMP_pressure;BME280_temperature;BME280_humidity;BME280_pressure;Samples;Min_cycle;Max_cycle;Signal;HPM_P1;HPM_P2
2021/01/26 00:00:59;;;;;;;12.40;10.07;;;;;;;-146.38;100.00;60817.44;981941;30;20402;-48
2021/01/26 00:02:28;;;;;;;13.48;11.00;;;;;;;-146.38;100.00;60817.44;982437;30;20036;-46
2021/01/26 00:03:57;;;;;;;12.50;11.05;;;;;;;-146.38;100.00;60817.44;982779;30;20036;-50
2021/01/26 00:05:26;;;;;;;12.13;10.80;;;;;;;-146.38;100.00;60817.44;982388;30;20048;-47
2021/01/26 00:06:55;;;;;;;12.45;10.93;;;;;;;-146.38;100.00;60817.44;983374;30;20036;-50
2021/01/26 00:08:24;;;;;;;13.93;11.45;;;;;;;-146.38;100.00;60817.44;981860;30;20398;-51
2021/01/26 00:09:53;;;;;;;12.98;11.15;;;;;;;-146.38;100.00;60817.44;982542;30;20067;-46
2021/01/26 00:11:22;;;;;;;13.75;11.27;;;;;;;-146.38;100.00;60817.44;982299;30;20449;-46
2021/01/26 00:12:51;;;;;;;14.23;12.10;;;;;;;-146.38;100.00;60817.44;982813;30;20394;-46
2021/01/26 00:14:20;;;;;;;12.57;11.23;;;;;;;-146.38;100.00;60817.44;982854;30;20053;-50
2021/01/26 00:15:49;;;;;;;13.57;12.13;;;;;;;-146.38;100.00;60817.44;983780;30;20235;-47
2021/01/26 00:17:18;;;;;;;12.85;11.15;;;;;;;-146.38;100.00;60817.44;984937;30;20534;-48
2021/01/26 00:18:47;;;;;;;14.73;11.15;;;;;;;-146.38;100.00;60817.44;983870;30;20540;-47
2021/01/26 00:20:16;;;;;;;14.52;11.88;;;;;;;-146.38;100.00;60817.44;983555;30;20048;-48
2021/01/26 00:21:45;;;;;;;14.18;11.57;;;;;;;-146.38;100.00;60817.44;985495;30;20111;-49
2021/01/26 00:23:17;;;;;;;15.48;11.52;;;;;;;-146.38;100.00;60817.44;982544;30;20032;-48
2021/01/26 00:24:46;;;;;;;12.90;11.20;;;;;;;-146.38;100.00;60817.44;983555;30;20090;-46
2021/01/26 00:26:20;;;;;;;13.05;11.20;;;;;;;-146.38;100.00;60817.44;983197;30;20036;-48
2021/01/26 00:27:49;;;;;;;13.75;11.32;;;;;;;-146.38;100.00;60817.44;984712;30;20153;-47
2021/01/26 00:29:18;;;;;;;13.38;11.52;;;;;;;-146.38;100.00;60817.44;984331;30;20084;-47
2021/01/26 00:30:46;;;;;;;13.23;11.57;;;;;;;-146.38;100.00;60817.44;983065;30;20060;-48
2021/01/26 00:32:15;;;;;;;13.90;11.75;;;;;;;-146.38;100.00;60817.44;984128;30;20517;-46
2021/01/26 00:33:44;;;;;;;12.95;11.30;;;;;;;-146.38;100.00;60817.44;983655;30;20517;-46
2021/01/26 00:35:13;;;;;;;12.98;11.55;;;;;;;-146.38;100.00;60817.44;983021;30;20036;-47
2021/01/26 00:36:42;;;;;;;14.65;11.05;;;;;;;-146.38;100.00;60817.44;981787;30;20084;-47
2021/01/26 00:38:11;;;;;;;13.43;11.38;;;;;;;-146.38;100.00;60817.44;980532;30;20032;-47
2021/01/26 00:39:40;;;;;;;12.18;10.85;;;;;;;-146.38;100.00;60817.44;984704;30;20407;-47
2021/01/26 00:41:10;;;;;;;12.43;11.13;;;;;;;-146.38;100.00;60817.44;984063;30;20051;-48
2021/01/26 00:42:39;;;;;;;14.38;12.23;;;;;;;-146.38;100.00;60817.44;983158;30;20036;-47
2021/01/26 00:44:08;;;;;;;14.15;11.75;;;;;;;-146.38;100.00;60817.44;978303;30;20387;-47
2021/01/26 00:45:37;;;;;;;13.73;12.07;;;;;;;-146.38;100.00;60817.44;984410;30;20036;-46
2021/01/26 00:47:06;;;;;;;15.93;12.05;;;;;;;-146.38;100.00;60817.44;984447;30;20071;-49
2021/01/26 00:48:35;;;;;;;14.43;11.80;;;;;;;-146.38;100.00;60817.44;980667;30;20053;-46
2021/01/26 00:50:05;;;;;;;16.88;12.85;;;;;;;-146.38;100.00;60817.44;979661;30;20441;-48
2021/01/26 00:51:34;;;;;;;15.70;12.52;;;;;;;-146.38;100.00;60817.44;979493;30;20032;-47
2021/01/26 00:53:03;;;;;;;14.02;11.43;;;;;;;-146.38;100.00;60817.44;981969;30;20036;-50
2021/01/26 00:54:32;;;;;;;15.98;12.40;;;;;;;-146.38;100.00;60817.44;984708;30;20066;-47
2021/01/26 00:56:02;;;;;;;13.93;11.70;;;;;;;-146.38;100.00;60817.44;983912;30;20059;-47
2021/01/26 00:57:31;;;;;;;14.57;12.25;;;;;;;-146.38;100.00;60817.44;983209;30;20077;-47
2021/01/26 00:59:00;;;;;;;14.65;11.77;;;;;;;-146.38;100.00;60817.44;984249;30;20064;-48
2021/01/26 01:00:33;;;;;;;13.88;12.18;;;;;;;-146.38;100.00;60817.44;984649;30;20027;-49
2021/01/26 01:02:02;;;;;;;13.35;11.57;;;;;;;-146.38;100.00;60817.44;983766;30;20032;-50
2021/01/26 01:03:31;;;;;;;15.18;12.25;;;;;;;-146.38;100.00;60817.44;984743;30;20024;-47
2021/01/26 01:05:00;;;;;;;16.40;13.10;;;;;;;-146.38;100.00;60817.44;984589;30;20516;-47
2021/01/26 01:06:29;;;;;;;16.58;13.25;;;;;;;-146.38;100.00;60817.44;983514;30;20596;-46
2021/01/26 01:07:58;;;;;;;15.95;13.60;;;;;;;-146.38;100.00;60817.44;983264;30;20491;-48
2021/01/26 01:09:27;;;;;;;16.83;13.88;;;;;;;-146.38;100.00;60817.44;984408;30;20059;-47
2021/01/26 01:10:56;;;;;;;16.77;13.45;;;;;;;-146.38;100.00;60817.44;984557;30;20032;-49
2021/01/26 01:12:25;;;;;;;16.52;13.20;;;;;;;-146.38;100.00;60817.44;983892;30;20047;-47
2021/01/26 01:13:54;;;;;;;17.25;14.25;;;;;;;-146.38;100.00;60817.44;984692;30;20032;-46
2021/01/26 01:15:23;;;;;;;17.33;14.02;;;;;;;-146.38;100.00;60817.44;984597;30;20034;-49
2021/01/26 01:16:53;;;;;;;18.95;15.20;;;;;;;-146.38;100.00;60817.44;983530;30;20031;-47
2021/01/26 01:18:22;;;;;;;16.33;14.48;;;;;;;-146.38;100.00;60817.44;984663;30;20111;-49
2021/01/26 01:19:51;;;;;;;17.00;14.98;;;;;;;-146.38;100.00;60817.44;983755;30;20036;-49
2021/01/26 01:21:20;;;;;;;16.70;14.90;;;;;;;-146.38;100.00;60817.44;983433;30;20531;-47
2021/01/26 01:22:49;;;;;;;15.98;13.63;;;;;;;-146.38;100.00;60817.44;984393;30;20127;-46
2021/01/26 01:24:18;;;;;;;16.83;14.43;;;;;;;-146.38;100.00;60817.44;984583;30;20038;-46
2021/01/26 01:25:47;;;;;;;17.90;15.50;;;;;;;-146.38;100.00;60817.44;983718;30;20517;-48
2021/01/26 01:27:16;;;;;;;17.17;15.18;;;;;;;-146.38;100.00;60817.44;982824;30;20459;-49
2021/01/26 01:28:45;;;;;;;18.42;15.40;;;;;;;-146.38;100.00;60817.44;983686;30;20039;-48
2021/01/26 01:30:16;;;;;;;19.02;16.63;;;;;;;-146.38;100.00;60817.44;984610;30;20035;-47
2021/01/26 01:31:45;;;;;;;16.75;14.82;;;;;;;-146.38;100.00;60817.44;983580;30;20089;-48
2021/01/26 01:33:14;;;;;;;21.90;15.68;;;;;;;-146.38;100.00;60817.44;984703;30;20067;-49
2021/01/26 01:34:43;;;;;;;18.00;15.50;;;;;;;-146.38;100.00;60817.44;983677;30;20062;-48
2021/01/26 01:36:12;;;;;;;18.15;16.02;;;;;;;-146.38;100.00;60817.44;984595;30;20027;-47
2021/01/26 01:37:40;;;;;;;18.25;15.63;;;;;;;-146.38;100.00;60817.44;984369;30;20044;-51
2021/01/26 01:39:09;;;;;;;18.17;14.20;;;;;;;-146.38;100.00;60817.44;983718;30;20477;-51
2021/01/26 01:40:38;;;;;;;19.13;15.95;;;;;;;-146.38;100.00;60817.44;983450;30;20369;-50
2021/01/26 01:42:08;;;;;;;16.25;14.02;;;;;;;-146.38;100.00;60817.44;984037;30;20024;-50
2021/01/26 01:43:37;;;;;;;17.98;15.02;;;;;;;-146.38;100.00;60817.44;984204;30;20038;-50
2021/01/26 01:45:06;;;;;;;17.85;15.43;;;;;;;-146.38;100.00;60817.44;983918;30;20085;-49
2021/01/26 01:46:37;;;;;;;17.67;15.50;;;;;;;-146.38;100.00;60817.44;983314;30;20059;-48
2021/01/26 01:48:12;;;;;;;17.23;14.90;;;;;;;-146.38;100.00;60817.44;981929;30;20122;-49
2021/01/26 01:49:42;;;;;;;20.10;15.38;;;;;;;-146.38;100.00;60817.44;981505;30;20502;-50
2021/01/26 01:51:14;;;;;;;16.67;14.18;;;;;;;-146.38;100.00;60817.44;983496;30;20066;-51
2021/01/26 01:52:43;;;;;;;16.83;13.65;;;;;;;-146.38;100.00;60817.44;979389;30;20121;-47
2021/01/26 01:54:23;;;;;;;14.20;12.07;;;;;;;-146.38;100.00;60817.44;978251;30;20549;-47
2021/01/26 01:56:06;;;;;;;18.40;14.10;;;;;;;-146.38;100.00;60817.44;980775;30;20040;-46
2021/01/26 01:57:39;;;;;;;17.08;13.52;;;;;;;-146.38;100.00;60817.44;983385;30;20145;-47
2021/01/26 01:59:12;;;;;;;17.40;14.20;;;;;;;-146.38;100.00;60817.44;983886;30;20397;-48
2021/01/26 02:00:42;;;;;;;14.65;11.68;;;;;;;-146.38;100.00;60817.44;981789;30;20027;-48
2021/01/26 02:02:12;;;;;;;16.02;13.45;;;;;;;-146.38;100.00;60817.44;976769;30;20124;-49
2021/01/26 02:03:46;;;;;;;15.43;12.93;;;;;;;-146.38;100.00;60817.44;984399;30;20447;-46
2021/01/26 02:05:15;;;;;;;15.93;13.88;;;;;;;-146.38;100.00;60817.44;983317;30;20060;-48
2021/01/26 02:06:46;;;;;;;17.77;14.10;;;;;;;-146.38;100.00;60817.44;979415;30;20161;-50
2021/01/26 02:08:18;;;;;;;;;;;;;;;-146.38;100.00;60817.44;979800;30;20040;-48
2021/01/26 02:09:55;;;;;;;16.10;11.48;;;;;;;-146.38;100.00;60817.44;983962;30;19921;-48
2021/01/26 02:11:25;;;;;;;20.02;13.80;;;;;;;-146.38;100.00;60817.44;985141;30;20096;-46
2021/01/26 02:12:54;;;;;;;18.02;15.10;;;;;;;-146.38;100.00;60817.44;984275;30;20324;-47
2021/01/26 02:14:27;;;;;;;16.15;14.13;;;;;;;-146.38;100.00;60817.44;984001;30;20087;-46
2021/01/26 02:15:57;;;;;;;19.27;15.90;;;;;;;-146.38;100.00;60817.44;982568;30;20078;-46
2021/01/26 02:17:54;;;;;;;19.65;14.88;;;;;;;-146.38;100.00;60817.44;983868;30;20061;-46
2021/01/26 02:19:28;;;;;;;16.98;14.82;;;;;;;-146.38;100.00;60817.44;978929;30;20029;-47
2021/01/26 02:21:04;;;;;;;19.10;15.85;;;;;;;-146.38;100.00;60817.44;978653;30;20123;-49
2021/01/26 02:22:45;;;;;;;19.60;15.80;;;;;;;-146.38;100.00;60817.44;984876;30;20035;-47
2021/01/26 02:24:41;;;;;;;19.15;15.88;;;;;;;-146.38;100.00;60817.44;982699;30;20167;-47
2021/01/26 02:26:31;;;;;;;20.90;16.42;;;;;;;-146.38;100.00;60817.44;984345;30;20028;-47
2021/01/26 02:28:31;;;;;;;18.45;15.20;;;;;;;-146.38;100.00;60817.44;981865;30;20592;-48
2021/01/26 02:30:23;;;;;;;18.92;15.95;;;;;;;-146.38;100.00;60817.44;985214;30;20032;-46
2021/01/26 02:32:02;;;;;;;20.80;16.90;;;;;;;-146.38;100.00;60817.44;981375;30;20049;-47
2021/01/26 02:34:00;;;;;;;23.35;17.38;;;;;;;-146.38;100.00;60817.44;984711;30;20040;-47
2021/01/26 02:35:56;;;;;;;20.13;16.50;;;;;;;-146.38;100.00;60817.44;983901;30;20046;-46
2021/01/26 02:38:05;;;;;;;22.52;17.58;;;;;;;-146.38;100.00;60817.44;971461;30;20037;-49
2021/01/26 02:40:08;;;;;;;23.08;17.67;;;;;;;-146.38;100.00;60817.44;980778;30;20037;-49
2021/01/26 02:41:41;;;;;;;23.15;17.60;;;;;;;-146.38;100.00;60817.44;985165;30;20036;-51
2021/01/26 02:43:28;;;;;;;22.65;18.30;;;;;;;-146.38;100.00;60817.44;984563;30;20032;-49
2021/01/26 02:45:05;;;;;;;23.02;18.83;;;;;;;-146.38;100.00;60817.44;982960;30;20094;-50
2021/01/26 02:46:44;;;;;;;24.30;19.08;;;;;;;-146.38;100.00;60817.44;981449;30;20032;-51
2021/01/26 02:48:28;;;;;;;25.23;18.77;;;;;;;-146.38;100.00;60817.44;981397;30;20090;-48
2021/01/26 02:50:36;;;;;;;21.83;17.52;;;;;;;-146.38;100.00;60817.44;982368;30;20068;-48
2021/01/26 02:52:23;;;;;;;21.98;16.92;;;;;;;-146.38;100.00;60817.44;985011;30;20076;-48
2021/01/26 02:53:56;;;;;;;23.10;18.20;;;;;;;-146.38;100.00;60817.44;984102;30;20044;-51
2021/01/26 02:55:52;;;;;;;23.40;17.20;;;;;;;-146.38;100.00;60817.44;978152;30;20024;-50
2021/01/26 02:57:39;;;;;;;22.83;18.60;;;;;;;-146.38;100.00;60817.44;981179;30;20146;-47
2021/01/26 02:59:13;;;;;;;25.02;19.60;;;;;;;-146.38;100.00;60817.44;980676;30;20032;-52
2021/01/26 03:00:55;;;;;;;26.63;19.67;;;;;;;-146.38;100.00;60817.44;984980;30;20039;-50
2021/01/26 03:02:29;;;;;;;33.47;22.52;;;;;;;-146.38;100.00;60817.44;984758;30;20076;-46
2021/01/26 03:04:08;;;;;;;29.48;21.95;;;;;;;-146.38;100.00;60817.44;983872;30;20039;-46
2021/01/26 03:05:45;;;;;;;25.90;20.77;;;;;;;-146.38;100.00;60817.44;981159;30;20499;-47
2021/01/26 03:07:21;;;;;;;27.17;19.13;;;;;;;-146.38;100.00;60817.44;977440;30;20033;-46
2021/01/26 03:08:59;;;;;;;23.52;18.92;;;;;;;-146.38;100.00;60817.44;975574;30;20082;-46
2021/01/26 03:10:31;;;;;;;24.27;19.00;;;;;;;-146.38;100.00;60817.44;978255;30;20044;-50
2021/01/26 03:12:14;;;;;;;24.05;19.30;;;;;;;-146.38;100.00;60817.44;975184;30;20373;-47
2021/01/26 03:13:54;;;;;;;23.67;19.02;;;;;;;-146.38;100.00;60817.44;982535;30;20495;-48
2021/01/26 03:15:33;;;;;;;25.05;19.38;;;;;;;-146.38;100.00;60817.44;983792;30;20027;-48
2021/01/26 03:17:13;;;;;;;24.75;19.10;;;;;;;-146.38;100.00;60817.44;980726;30;20051;-51
2021/01/26 03:18:49;;;;;;;27.23;19.70;;;;;;;-146.38;100.00;60817.44;977304;30;20033;-49
2021/01/26 03:20:21;;;;;;;22.17;17.92;;;;;;;-146.38;100.00;60817.44;980861;30;20032;-50
2021/01/26 03:21:51;;;;;;;22.48;18.35;;;;;;;-146.38;100.00;60817.44;982175;30;20035;-49
2021/01/26 03:23:26;;;;;;;25.08;19.45;;;;;;;-146.38;100.00;60817.44;980895;30;20032;-49
2021/01/26 03:24:55;;;;;;;23.35;18.40;;;;;;;-146.38;100.00;60817.44;979071;30;20020;-49
2021/01/26 03:26:24;;;;;;;22.90;18.15;;;;;;;-146.38;100.00;60817.44;979712;30;20123;-46
2021/01/26 03:27:54;;;;;;;25.75;18.63;;;;;;;-146.38;100.00;60817.44;977458;30;20029;-47
2021/01/26 03:29:28;;;;;;;22.35;16.85;;;;;;;-146.38;100.00;60817.44;978627;30;21348;-49
2021/01/26 03:30:58;;;;;;;23.23;16.77;;;;;;;-146.38;100.00;60817.44;983552;30;20028;-47
2021/01/26 03:32:29;;;;;;;22.83;18.83;;;;;;;-146.38;100.00;60817.44;982242;30;20031;-48
2021/01/26 03:33:59;;;;;;;24.85;19.65;;;;;;;-146.38;100.00;60817.44;984221;30;20101;-47
2021/01/26 03:35:28;;;;;;;25.35;18.90;;;;;;;-146.38;100.00;60817.44;985006;30;20062;-46
2021/01/26 03:36:57;;;;;;;24.25;19.40;;;;;;;-146.38;100.00;60817.44;984500;30;20035;-46
2021/01/26 03:38:27;;;;;;;24.30;19.52;;;;;;;-146.38;100.00;60817.44;986285;30;20133;-46
2021/01/26 03:39:56;;;;;;;23.90;18.23;;;;;;;-146.38;100.00;60817.44;984463;30;20070;-45
2021/01/26 03:41:25;;;;;;;26.73;21.30;;;;;;;-146.38;100.00;60817.44;983721;30;20044;-45
2021/01/26 03:42:53;;;;;;;26.90;21.10;;;;;;;-146.38;100.00;60817.44;983308;30;20059;-46
2021/01/26 03:44:22;;;;;;;25.83;20.45;;;;;;;-146.38;100.00;60817.44;980707;30;20033;-46
2021/01/26 03:45:54;;;;;;;26.73;19.25;;;;;;;-146.38;100.00;60817.44;983012;30;20424;-46
2021/01/26 03:47:59;;;;;;;23.20;18.40;;;;;;;-146.38;100.00;60817.44;982153;30;20028;-50
2021/01/26 03:49:52;;;;;;;22.80;18.25;;;;;;;-146.38;100.00;60817.44;984839;30;20040;-47
2021/01/26 03:51:44;;;;;;;23.02;18.88;;;;;;;-146.38;100.00;60817.44;984067;30;20111;-46
2021/01/26 03:53:27;;;;;;;24.45;18.98;;;;;;;-146.38;100.00;60817.44;985570;30;20024;-48
2021/01/26 03:55:19;;;;;;;21.60;16.88;;;;;;;-146.38;100.00;60817.44;983688;30;20036;-46
2021/01/26 03:57:17;;;;;;;21.02;16.70;;;;;;;-146.38;100.00;60817.44;983834;30;20028;-49
2021/01/26 03:58:52;;;;;;;22.27;17.48;;;;;;;-146.38;100.00;60817.44;980832;30;20478;-47
2021/01/26 04:00:43;;;;;;;21.38;15.50;;;;;;;-146.38;100.00;60817.44;984085;30;20128;-46
2021/01/26 04:02:26;;;;;;;22.05;17.48;;;;;;;-146.38;100.00;60817.44;983354;30;20032;-46
2021/01/26 04:04:18;;;;;;;20.13;14.90;;;;;;;-146.38;100.00;60817.44;978343;30;20036;-46
2021/01/26 04:06:20;;;;;;;20.95;16.67;;;;;;;-146.38;100.00;60817.44;983452;30;20474;-49
2021/01/26 04:07:55;;;;;;;20.63;16.88;;;;;;;-146.38;100.00;60817.44;984303;30;20023;-47
2021/01/26 04:09:43;;;;;;;21.02;16.58;;;;;;;-146.38;100.00;60817.44;976849;30;20399;-46
2021/01/26 04:11:37;;;;;;;21.08;16.33;;;;;;;-146.38;100.00;60817.44;984163;30;20035;-45
2021/01/26 04:13:10;;;;;;;21.27;16.17;;;;;;;-146.38;100.00;60817.44;980915;30;20061;-47
2021/01/26 04:14:44;;;;;;;20.25;16.45;;;;;;;-146.38;100.00;60817.44;978481;30;20032;-46
2021/01/26 04:16:15;;;;;;;20.17;16.20;;;;;;;-146.38;100.00;60817.44;980049;30;20028;-48
2021/01/26 04:17:49;;;;;;;20.27;15.88;;;;;;;-146.38;100.00;60817.44;976581;30;20493;-48
2021/01/26 04:19:29;;;;;;;18.02;12.80;;;;;;;-146.38;100.00;60817.44;976981;30;20056;-46
2021/01/26 04:21:03;;;;;;;18.70;14.73;;;;;;;-146.38;100.00;60817.44;983013;30;20043;-46
2021/01/26 04:22:32;;;;;;;17.08;13.65;;;;;;;-146.38;100.00;60817.44;984417;30;20442;-46
2021/01/26 04:24:01;;;;;;;20.38;15.57;;;;;;;-146.38;100.00;60817.44;984289;30;20046;-47
2021/01/26 04:25:36;;;;;;;19.13;15.55;;;;;;;-146.38;100.00;60817.44;983228;30;20032;-47
2021/01/26 04:27:10;;;;;;;20.48;15.57;;;;;;;-146.38;100.00;60817.44;984314;30;20048;-47
2021/01/26 04:28:42;;;;;;;19.30;14.38;;;;;;;-146.38;100.00;60817.44;984718;30;20371;-49
2021/01/26 04:30:11;;;;;;;16.23;11.82;;;;;;;-146.38;100.00;60817.44;983521;30;20032;-46
2021/01/26 04:31:40;;;;;;;17.77;15.07;;;;;;;-146.38;100.00;60817.44;983561;30;20036;-48
2021/01/26 04:33:10;;;;;;;18.08;11.85;;;;;;;-146.38;100.00;60817.44;984771;30;20036;-45
2021/01/26 04:34:39;;;;;;;16.13;11.38;;;;;;;-146.38;100.00;60817.44;985562;30;20508;-46
2021/01/26 04:36:08;;;;;;;17.48;14.60;;;;;;;-146.38;100.00;60817.44;984234;30;20039;-48
2021/01/26 04:37:37;;;;;;;17.17;13.40;;;;;;;-146.38;100.00;60817.44;984493;30;20450;-46
2021/01/26 04:39:06;;;;;;;14.90;10.00;;;;;;;-146.38;100.00;60817.44;984277;30;20547;-48
2021/01/26 04:40:35;;;;;;;14.73;9.52;;;;;;;-146.38;100.00;60817.44;983142;30;20039;-50
2021/01/26 04:42:08;;;;;;;16.83;13.75;;;;;;;-146.38;100.00;60817.44;983921;30;20062;-47
2021/01/26 04:43:54;;;;;;;19.23;14.18;;;;;;;-146.38;100.00;60817.44;984620;30;20051;-46
2021/01/26 04:45:53;;;;;;;15.77;12.95;;;;;;;-146.38;100.00;60817.44;983635;30;20093;-45
2021/01/26 04:47:45;;;;;;;14.15;11.27;;;;;;;-146.38;100.00;60817.44;979495;30;20049;-47
2021/01/26 04:49:20;;;;;;;16.48;13.27;;;;;;;-146.38;100.00;60817.44;981349;30;20082;-46
2021/01/26 04:51:00;;;;;;;16.08;11.80;;;;;;;-146.38;100.00;60817.44;975323;30;20028;-51
2021/01/26 04:52:47;;;;;;;18.08;12.38;;;;;;;-146.38;100.00;60817.44;981665;30;20090;-51
2021/01/26 04:54:36;;;;;;;15.02;11.43;;;;;;;-146.38;100.00;60817.44;978303;30;20062;-50
2021/01/26 04:56:26;;;;;;;14.02;10.40;;;;;;;-146.38;100.00;60817.44;975470;30;20053;-50
2021/01/26 04:58:23;;;;;;;15.63;12.63;;;;;;;-146.38;100.00;60817.44;984364;30;20035;-49
2021/01/26 05:00:00;;;;;;;18.83;11.98;;;;;;;-146.38;100.00;60817.44;984676;30;20115;-47
2021/01/26 05:01:32;;;;;;;17.48;12.75;;;;;;;-146.38;100.00;60817.44;983611;30;20046;-51
2021/01/26 05:03:25;;;;;;;17.30;13.15;;;;;;;-146.38;100.00;60817.44;983437;30;20028;-50
2021/01/26 05:05:01;;;;;;;14.88;11.57;;;;;;;-146.38;100.00;60817.44;984648;30;20043;-47
2021/01/26 05:06:32;;;;;;;16.27;12.00;;;;;;;-146.38;100.00;60817.44;983913;30;20052;-49
2021/01/26 05:08:37;;;;;;;16.20;12.93;;;;;;;-146.38;100.00;60817.44;983296;30;20427;-50
2021/01/26 05:10:10;;;;;;;17.70;12.30;;;;;;;-146.38;100.00;60817.44;974647;30;20190;-49
2021/01/26 05:11:43;;;;;;;14.32;9.98;;;;;;;-146.38;100.00;60817.44;966733;30;20041;-50
2021/01/26 05:13:21;;;;;;;22.02;13.93;;;;;;;-146.38;100.00;60817.44;971253;30;20038;-49
2021/01/26 05:14:54;;;;;;;16.98;12.93;;;;;;;-146.38;100.00;60817.44;970842;30;20033;-46
2021/01/26 05:16:24;;;;;;;16.25;11.80;;;;;;;-146.38;100.00;60817.44;970831;30;20025;-48
2021/01/26 05:18:02;;;;;;;16.33;11.30;;;;;;;-146.38;100.00;60817.44;974388;30;20112;-47
2021/01/26 05:19:44;;;;;;;15.70;11.70;;;;;;;-146.38;100.00;60817.44;974452;30;20037;-46
2021/01/26 05:21:35;;;;;;;14.13;10.40;;;;;;;-146.38;100.00;60817.44;974433;30;20033;-47
2021/01/26 05:23:12;;;;;;;15.18;11.52;;;;;;;-146.38;100.00;60817.44;974277;30;20078;-46
2021/01/26 05:24:43;;;;;;;17.15;13.00;;;;;;;-146.38;100.00;60817.44;970791;30;20065;-46
2021/01/26 05:26:15;;;;;;;20.02;14.13;;;;;;;-146.38;100.00;60817.44;974561;30;20116;-46
2021/01/26 05:27:44;;;;;;;18.50;12.63;;;;;;;-146.38;100.00;60817.44;970675;30;20041;-48
2021/01/26 05:29:14;;;;;;;18.55;12.38;;;;;;;-146.38;100.00;60817.44;974352;30;20064;-47
2021/01/26 05:30:45;;;;;;;16.70;12.25;;;;;;;-146.38;100.00;60817.44;974390;30;20091;-46
2021/01/26 05:32:13;;;;;;;;;;;;;;;-146.38;100.00;60817.44;969812;30;20042;-47
2021/01/26 05:33:43;;;;;;;16.75;12.45;;;;;;;-146.38;100.00;60817.44;970681;30;20274;-46
2021/01/26 05:35:13;;;;;;;16.58;11.60;;;;;;;-146.38;100.00;60817.44;970902;30;20100;-47
2021/01/26 05:36:44;;;;;;;15.68;10.00;;;;;;;-146.38;100.00;60817.44;974267;30;20128;-46
2021/01/26 05:38:13;;;;;;;18.05;13.38;;;;;;;-146.38;100.00;60817.44;967343;30;20061;-48
2021/01/26 05:39:52;;;;;;;15.98;11.20;;;;;;;-146.38;100.00;60817.44;966560;30;20046;-47
2021/01/26 05:41:22;;;;;;;14.60;11.45;;;;;;;-146.38;100.00;60817.44;971173;30;20033;-47
2021/01/26 05:42:52;;;;;;;14.77;11.23;;;;;;;-146.38;100.00;60817.44;967377;30;20050;-46
2021/01/26 05:44:22;;;;;;;14.10;11.00;;;;;;;-146.38;100.00;60817.44;967788;30;20047;-45
2021/01/26 05:45:55;;;;;;;14.52;10.68;;;;;;;-146.38;100.00;60817.44;973292;30;20121;-48
2021/01/26 05:47:33;;;;;;;14.95;10.77;;;;;;;-146.38;100.00;60817.44;982705;30;20028;-46
2021/01/26 05:49:08;;;;;;;10.57;7.85;;;;;;;-146.38;100.00;60817.44;985259;30;20027;-46
2021/01/26 05:50:38;;;;;;;11.73;7.57;;;;;;;-146.38;100.00;60817.44;980470;30;20032;-48
2021/01/26 05:52:14;;;;;;;16.55;10.77;;;;;;;-146.38;100.00;60817.44;983612;30;20032;-47
2021/01/26 05:53:43;;;;;;;12.05;8.43;;;;;;;-146.38;100.00;60817.44;984397;30;20031;-51
2021/01/26 05:55:21;;;;;;;15.25;9.55;;;;;;;-146.38;100.00;60817.44;984242;30;20078;-48
2021/01/26 05:56:50;;;;;;;12.43;9.90;;;;;;;-146.38;100.00;60817.44;980584;30;20029;-45
2021/01/26 05:58:27;;;;;;;12.32;9.65;;;;;;;-146.38;100.00;60817.44;978924;30;20036;-48
2021/01/26 06:00:10;;;;;;;14.57;9.10;;;;;;;-146.38;100.00;60817.44;984851;30;20347;-45
2021/01/26 06:01:40;;;;;;;12.05;9.55;;;;;;;-146.38;100.00;60817.44;986316;30;20428;-47
2021/01/26 06:03:21;;;;;;;12.20;9.00;;;;;;;-146.38;100.00;60817.44;985279;30;20476;-48
2021/01/26 06:05:06;;;;;;;9.55;7.05;;;;;;;-146.38;100.00;60817.44;983706;30;20125;-47
2021/01/26 06:06:48;;;;;;;12.38;9.15;;;;;;;-146.38;100.00;60817.44;984154;30;20118;-46
2021/01/26 06:08:21;;;;;;;12.73;9.00;;;;;;;-146.38;100.00;60817.44;984144;30;20079;-46
2021/01/26 06:09:50;;;;;;;11.63;8.10;;;;;;;-146.38;100.00;60817.44;984849;30;20110;-47
2021/01/26 06:11:29;;;;;;;11.40;7.78;;;;;;;-146.38;100.00;60817.44;984592;30;20043;-47
2021/01/26 06:13:07;;;;;;;9.95;7.25;;;;;;;-146.38;100.00;60817.44;985162;30;20451;-47
2021/01/26 06:14:36;;;;;;;11.80;9.20;;;;;;;-146.38;100.00;60817.44;983938;30;20058;-47
2021/01/26 06:16:12;;;;;;;13.75;9.43;;;;;;;-146.38;100.00;60817.44;984714;30;20478;-49
2021/01/26 06:17:41;;;;;;;12.02;9.18;;;;;;;-146.38;100.00;60817.44;983954;30;20481;-46
2021/01/26 06:19:13;;;;;;;10.15;7.75;;;;;;;-146.38;100.00;60817.44;982299;30;20040;-46
2021/01/26 06:20:43;;;;;;;12.10;9.07;;;;;;;-146.38;100.00;60817.44;984291;30;20028;-47
2021/01/26 06:22:21;;;;;;;12.73;8.93;;;;;;;-146.38;100.00;60817.44;984179;30;20040;-49
2021/01/26 06:23:50;;;;;;;11.20;8.70;;;;;;;-146.38;100.00;60817.44;984819;30;20024;-46
2021/01/26 06:25:22;;;;;;;8.90;6.20;;;;;;;-146.38;100.00;60817.44;984752;30;20040;-46
2021/01/26 06:27:02;;;;;;;14.68;8.30;;;;;;;-146.38;100.00;60817.44;986127;30;20114;-47
2021/01/26 06:29:00;;;;;;;13.50;9.35;;;;;;;-146.38;100.00;60817.44;986265;30;20580;-47
2021/01/26 06:30:51;;;;;;;16.08;9.43;;;;;;;-146.38;100.00;60817.44;980680;30;20037;-48
2021/01/26 06:32:32;;;;;;;11.18;9.10;;;;;;;-146.38;100.00;60817.44;982472;30;20037;-48
2021/01/26 06:34:13;;;;;;;11.38;9.30;;;;;;;-146.38;100.00;60817.44;985183;30;20036;-50
2021/01/26 06:36:10;;;;;;;14.07;9.43;;;;;;;-146.38;100.00;60817.44;983980;30;20564;-50
2021/01/26 06:37:45;;;;;;;12.27;8.35;;;;;;;-146.38;100.00;60817.44;984740;30;20126;-49
2021/01/26 06:39:17;;;;;;;12.00;8.98;;;;;;;-146.38;100.00;60817.44;983836;30;20422;-47
2021/01/26 06:41:07;;;;;;;13.32;10.00;;;;;;;-146.38;100.00;60817.44;984034;30;20024;-47
2021/01/26 06:43:18;;;;;;;11.75;8.13;;;;;;;-146.38;100.00;60817.44;983198;30;20501;-49
2021/01/26 06:45:15;;;;;;;11.27;7.50;;;;;;;-146.38;100.00;60817.44;975231;30;20499;-46
2021/01/26 06:46:59;;;;;;;13.18;9.38;;;;;;;-146.38;100.00;60817.44;985034;30;20505;-47
2021/01/26 06:49:01;;;;;;;10.50;7.15;;;;;;;-146.38;100.00;60817.44;985636;30;20040;-47
2021/01/26 06:50:51;;;;;;;12.57;8.75;;;;;;;-146.38;100.00;60817.44;984649;30;20170;-48
2021/01/26 06:52:46;;;;;;;15.13;9.38;;;;;;;-146.38;100.00;60817.44;984080;30;20043;-45
2021/01/26 06:54:36;;;;;;;13.25;9.15;;;;;;;-146.38;100.00;60817.44;981699;30;20040;-46
2021/01/26 06:56:42;;;;;;;11.02;7.28;;;;;;;-146.38;100.00;60817.44;986345;30;20047;-48
2021/01/26 06:58:26;;;;;;;14.13;9.07;;;;;;;-146.38;100.00;60817.44;984692;30;20032;-48
2021/01/26 07:00:32;;;;;;;14.80;9.88;;;;;;;-146.38;100.00;60817.44;986443;30;20111;-50
2021/01/26 07:02:22;;;;;;;15.27;9.15;;;;;;;-146.38;100.00;60817.44;983230;30;20421;-50
2021/01/26 07:04:04;;;;;;;15.07;9.75;;;;;;;-146.38;100.00;60817.44;982636;30;20054;-46
2021/01/26 07:05:48;;;;;;;13.88;8.23;;;;;;;-146.38;100.00;60817.44;982870;30;20036;-45
2021/01/26 07:07:23;;;;;;;12.60;8.50;;;;;;;-146.38;100.00;60817.44;982272;30;20043;-50
2021/01/26 07:09:26;;;;;;;11.95;7.50;;;;;;;-146.38;100.00;60817.44;984092;30;20036;-46
2021/01/26 07:11:03;;;;;;;11.20;8.35;;;;;;;-146.38;100.00;60817.44;985523;30;20031;-49
2021/01/26 07:12:32;;;;;;;6.22;4.13;;;;;;;-146.38;100.00;60817.44;986276;30;20035;-46
2021/01/26 07:14:07;;;;;;;10.43;6.40;;;;;;;-146.38;100.00;60817.44;986093;30;20119;-45
2021/01/26 07:15:51;;;;;;;12.07;7.97;;;;;;;-146.38;100.00;60817.44;986151;30;20043;-46